Terminal Aerodrome Forecast
Issued by NWS

Home | Current Version | Previous Version | Text Only | Print | Product List | Glossary On
Versions: 1 2 3 4 5 6 7 8 9 10 11 12 13 14 15 16 17 18 19 20 21 22
000
FTUS43 KAPX 271100
TAFTVC
TAF
KTVC 271120Z 2712/2812 VRB02KT P6SM SCT120 BKN150
     FM271700 32007KT P6SM FEW060
     FM280100 00000KT P6SM SCT250=

USA.gov is the U.S. government's official web portal to all federal, state and local government web resources and services.